Time;durP1;ratioP1;P1;durP2;ratioP2;P2;SDS_P1;SDS_P2;PMS_P1;PMS_P2;Temp;Humidity;BMP_temperature;BMP_pressure;BME280_temperature;BME280_humidity;BME280_pressure;Samples;Min_cycle;Max_cycle;Signal;HPM_P1;HPM_P2
2022/09/02 00:04:18;;;;;;;5.13;2.28;;;;;;;12.55;72.51;101454.47;10441220;28;20105;-73
2022/09/02 00:09:20;;;;;;;7.32;3.20;;;;;;;12.30;73.42;101441.00;10418129;28;20463;-73
2022/09/02 00:14:29;;;;;;;4.07;3.00;;;;;;;12.21;73.95;101440.56;10398849;28;20129;-73
2022/09/02 00:19:30;;;;;;;7.35;4.43;;;;;;;12.19;74.54;101439.56;10418789;28;20061;-73
2022/09/02 00:24:30;;;;;;;6.80;3.20;;;;;;;12.02;75.39;101434.38;10439075;28;20120;-73
2022/09/02 00:29:31;;;;;;;3.95;2.78;;;;;;;11.90;75.78;101432.00;10422522;28;20041;-73
2022/09/02 00:34:31;;;;;;;6.25;4.15;;;;;;;11.88;77.56;101432.75;10439547;28;20045;-73
2022/09/02 00:39:32;;;;;;;4.07;2.95;;;;;;;11.88;78.87;101431.03;10456312;28;20064;-73
2022/09/02 00:44:33;;;;;;;3.97;2.30;;;;;;;11.78;79.07;101426.13;10482815;28;20150;-73
2022/09/02 00:49:35;;;;;;;5.95;2.65;;;;;;;11.72;79.17;101429.31;10464549;28;20101;-72
2022/09/02 00:54:38;;;;;;;4.17;2.80;;;;;;;11.77;78.66;101424.34;10443285;28;20033;-73
2022/09/02 01:00:08;;;;;;;10.35;2.95;;;;;;;11.72;78.59;101416.22;10445472;28;20793;-72
2022/09/02 01:05:11;;;;;;;5.13;2.38;;;;;;;11.64;78.20;101412.28;10446924;28;20052;-74
2022/09/02 01:10:17;;;;;;;5.57;2.78;;;;;;;11.59;78.41;101412.06;10423995;28;20102;-73
2022/09/02 01:15:17;;;;;;;4.75;2.53;;;;;;;11.57;78.29;101415.41;10423722;28;20029;-73
2022/09/02 01:20:23;;;;;;;3.67;2.40;;;;;;;11.66;77.31;101408.03;10426618;28;20096;-73
2022/09/02 01:25:26;;;;;;;6.32;2.58;;;;;;;11.71;76.24;101414.41;10387787;28;20176;-72
2022/09/02 01:30:27;;;;;;;5.45;2.58;;;;;;;11.69;76.76;101407.31;10422342;28;20033;-73
2022/09/02 01:35:27;;;;;;;5.38;2.80;;;;;;;11.63;77.52;101402.63;10445231;28;20044;-72
2022/09/02 01:40:29;;;;;;;5.63;2.92;;;;;;;11.59;77.22;101400.66;10424894;28;20112;-73
2022/09/02 01:45:29;;;;;;;4.50;2.40;;;;;;;11.58;76.57;101399.78;10402323;28;20033;-73
2022/09/02 01:50:30;;;;;;;5.82;2.63;;;;;;;11.55;77.26;101390.84;10424175;28;20147;-73
2022/09/02 01:55:31;;;;;;;4.93;4.07;;;;;;;11.56;77.18;101395.25;10446429;28;20033;-73
2022/09/02 02:00:32;;;;;;;5.32;3.50;;;;;;;11.43;76.93;101391.13;10422871;28;20133;-73
2022/09/02 02:05:33;;;;;;;4.53;2.88;;;;;;;11.37;77.72;101393.41;10407252;28;20052;-73
2022/09/02 02:10:33;;;;;;;6.05;3.53;;;;;;;11.38;77.22;101396.09;10407967;28;20037;-74
2022/09/02 02:15:37;;;;;;;5.80;3.25;;;;;;;11.34;78.33;101402.00;10418294;28;20136;-73
2022/09/02 02:20:37;;;;;;;3.67;2.70;;;;;;;11.40;78.77;101404.94;10385345;28;20045;-72
2022/09/02 02:25:38;;;;;;;6.57;2.90;;;;;;;11.46;79.19;101402.66;10443154;28;20072;-73
2022/09/02 02:30:38;;;;;;;6.75;2.38;;;;;;;11.60;78.10;101395.53;10404822;28;20136;-72
2022/09/02 02:35:39;;;;;;;4.75;2.13;;;;;;;11.79;76.20;101388.59;10404881;28;20080;-72
2022/09/02 02:40:40;;;;;;;4.72;3.15;;;;;;;11.96;75.59;101386.81;10419607;28;20129;-73
2022/09/02 02:45:40;;;;;;;4.18;2.67;;;;;;;12.04;76.00;101385.50;10426120;28;20037;-72
2022/09/02 02:50:41;;;;;;;3.60;2.65;;;;;;;12.04;77.01;101388.13;10423406;28;20106;-74
2022/09/02 02:55:42;;;;;;;4.30;2.75;;;;;;;12.03;75.85;101383.72;10400638;28;20040;-72
2022/09/02 03:00:44;;;;;;;3.42;2.15;;;;;;;12.12;75.71;101383.28;10400119;28;20045;-73
2022/09/02 03:05:45;;;;;;;8.73;2.50;;;;;;;12.18;75.77;101375.72;10443039;28;20041;-74
2022/09/02 03:10:48;;;;;;;6.97;2.25;;;;;;;12.30;73.86;101375.41;10387668;28;20046;-75
2022/09/02 03:15:49;;;;;;;4.40;2.90;;;;;;;12.39;74.29;101374.97;10399193;28;20132;-73
2022/09/02 03:20:49;;;;;;;5.53;2.10;;;;;;;12.47;72.74;101368.34;10420158;28;20041;-74
2022/09/02 03:25:50;;;;;;;5.72;2.17;;;;;;;12.46;73.08;101373.53;10440008;28;20103;-76
2022/09/02 03:30:50;;;;;;;3.13;2.10;;;;;;;12.52;73.96;101367.69;10427274;28;20045;-75
2022/09/02 03:35:50;;;;;;;4.75;2.28;;;;;;;12.52;73.25;101370.31;10440679;28;20143;-73
2022/09/02 03:40:51;;;;;;;6.15;1.90;;;;;;;12.63;72.58;101364.72;10402957;28;20092;-74
2022/09/02 03:45:51;;;;;;;55.35;16.65;;;;;;;12.83;71.82;101361.25;10398337;28;20140;-74
2022/09/02 03:50:52;;;;;;;5.00;1.90;;;;;;;12.95;71.72;101353.94;10416817;28;20041;-72
2022/09/02 03:55:53;;;;;;;6.35;2.67;;;;;;;12.92;71.89;101356.41;10441361;28;20075;-73
2022/09/02 04:00:54;;;;;;;5.93;2.58;;;;;;;13.00;71.46;101354.13;10391564;28;20545;-73
2022/09/02 04:05:54;;;;;;;3.15;2.53;;;;;;;13.17;70.82;101347.91;10399429;28;20040;-72
2022/09/02 04:10:55;;;;;;;5.88;2.95;;;;;;;13.39;70.26;101345.34;10429319;28;20056;-75
2022/09/02 04:15:56;;;;;;;6.18;1.65;;;;;;;13.50;70.31;101342.34;10441284;28;20051;-73
2022/09/02 04:20:59;;;;;;;3.67;2.25;;;;;;;13.48;70.17;101338.75;10391559;28;20124;-73
2022/09/02 04:26:05;;;;;;;3.47;2.08;;;;;;;13.53;69.99;101345.94;10389130;28;20504;-73
2022/09/02 04:31:07;;;;;;;4.95;2.30;;;;;;;13.54;70.36;101345.13;10394106;28;20030;-73
2022/09/02 04:36:09;;;;;;;4.45;1.80;;;;;;;13.58;69.80;101341.78;10445090;28;20037;-73
2022/09/02 04:41:21;;;;;;;3.78;1.95;;;;;;;13.61;70.09;101329.69;10406634;28;20045;-73
2022/09/02 04:46:22;;;;;;;4.53;2.00;;;;;;;13.73;70.85;101336.28;10425781;28;20049;-73
2022/09/02 04:51:24;;;;;;;8.38;2.83;;;;;;;13.76;70.26;101339.06;10431815;28;20128;-71
2022/09/02 04:56:26;;;;;;;14.10;3.60;;;;;;;13.83;68.57;101348.09;10445385;28;20033;-72
2022/09/02 05:01:29;;;;;;;5.85;3.15;;;;;;;13.83;69.92;101338.47;10417416;28;20044;-72
2022/09/02 05:06:30;;;;;;;4.60;2.65;;;;;;;13.87;68.55;101334.22;10437167;28;20069;-72
2022/09/02 05:11:31;;;;;;;5.05;2.50;;;;;;;13.97;68.13;101336.41;10443366;28;20041;-73
2022/09/02 05:16:35;;;;;;;7.43;3.33;;;;;;;14.10;68.63;101341.34;10452063;28;20147;-74
2022/09/02 05:21:42;;;;;;;4.55;2.22;;;;;;;14.31;67.65;101339.53;10396568;28;20693;-72
2022/09/02 05:26:43;;;;;;;5.82;3.20;;;;;;;14.53;68.15;101338.63;10457156;28;20045;-72
2022/09/02 05:31:44;;;;;;;12.95;3.20;;;;;;;14.65;65.48;101339.09;10438923;28;20493;-73
2022/09/02 05:36:45;;;;;;;2.85;1.52;;;;;;;15.04;63.01;101337.94;10443720;28;20557;-74
2022/09/02 05:41:46;;;;;;;8.65;2.47;;;;;;;15.32;62.78;101338.03;10450838;28;20037;-74
2022/09/02 05:46:47;;;;;;;5.90;1.80;;;;;;;15.55;61.77;101333.59;10476176;28;20465;-73
2022/09/02 05:51:49;;;;;;;4.30;1.90;;;;;;;15.82;60.79;101336.25;10440124;28;20116;-73
2022/09/02 05:56:52;;;;;;;5.55;1.80;;;;;;;16.05;61.26;101330.00;10405438;28;20039;-74
2022/09/02 06:01:53;;;;;;;4.13;2.00;;;;;;;16.21;59.26;101334.00;10428060;28;20515;-74
2022/09/02 06:06:54;;;;;;;5.22;1.50;;;;;;;16.19;61.86;101333.97;10425971;28;20033;-73
2022/09/02 06:11:55;;;;;;;4.63;1.92;;;;;;;16.15;59.99;101335.59;10408404;28;20124;-73
2022/09/02 06:16:56;;;;;;;7.10;2.60;;;;;;;16.28;59.43;101333.34;10444121;28;20045;-72
2022/09/02 06:21:56;;;;;;;6.32;2.45;;;;;;;16.49;58.48;101329.59;10484699;28;20428;-72
2022/09/02 06:26:58;;;;;;;8.10;3.10;;;;;;;16.78;59.18;101330.47;10495285;28;20075;-72
2022/09/02 06:31:58;;;;;;;6.47;2.03;;;;;;;17.61;59.13;101323.97;10484592;28;20044;-73
2022/09/02 06:36:59;;;;;;;8.82;2.38;;;;;;;18.90;53.26;101331.38;10462735;28;20182;-72
2022/09/02 06:42:00;;;;;;;6.13;2.28;;;;;;;18.41;53.43;101329.44;10489437;28;20057;-73
2022/09/02 06:47:01;;;;;;;4.13;2.33;;;;;;;18.52;55.63;101323.50;10438279;28;20563;-72
2022/09/02 06:52:04;;;;;;;3.95;2.05;;;;;;;19.94;52.75;101312.09;10465035;28;20123;-72
2022/09/02 06:57:04;;;;;;;4.50;2.20;;;;;;;20.86;48.09;101316.06;10444925;28;20040;-73
2022/09/02 07:02:05;;;;;;;10.48;2.33;;;;;;;21.54;44.10;101308.81;10453966;28;20127;-73
2022/09/02 07:07:07;;;;;;;6.95;3.25;;;;;;;21.44;43.73;101306.94;10445330;28;20084;-74
2022/09/02 07:12:07;;;;;;;6.35;1.95;;;;;;;20.63;45.91;101311.31;10432187;28;20044;-72
2022/09/02 07:17:09;;;;;;;6.35;1.98;;;;;;;19.84;47.90;101305.69;10391823;28;20029;-73
2022/09/02 07:22:09;;;;;;;7.17;2.17;;;;;;;19.74;49.30;101303.75;10392457;28;20053;-73
2022/09/02 07:27:11;;;;;;;16.83;5.32;;;;;;;21.62;44.14;101292.91;10399879;28;20385;-73
2022/09/02 07:32:12;;;;;;;10.02;2.63;;;;;;;22.05;43.13;101292.38;10400442;28;20049;-72
2022/09/02 07:37:12;;;;;;;5.40;1.97;;;;;;;21.35;44.18;101297.09;10399917;28;20052;-73
2022/09/02 07:42:13;;;;;;;5.63;2.22;;;;;;;21.81;44.91;101292.22;10419226;28;20077;-73
2022/09/02 07:47:13;;;;;;;4.88;2.03;;;;;;;21.47;43.08;101290.97;10422980;28;20036;-73
2022/09/02 07:52:15;;;;;;;37.03;5.05;;;;;;;20.95;44.95;101295.78;10393169;28;20116;-73
2022/09/02 07:57:15;;;;;;;5.63;1.73;;;;;;;21.28;43.81;101282.81;10408179;28;20124;-74
2022/09/02 08:02:17;;;;;;;6.70;3.58;;;;;;;22.11;42.28;101287.97;10395614;28;20041;-72
2022/09/02 08:07:22;;;;;;;9.82;4.60;;;;;;;22.98;41.52;101292.84;10397761;28;20041;-73
2022/09/02 08:12:23;;;;;;;4.05;3.22;;;;;;;25.53;35.78;101287.00;10445030;28;20126;-73
2022/09/02 08:17:24;;;;;;;7.20;2.87;;;;;;;27.22;33.42;101280.63;10410557;28;20043;-73
2022/09/02 08:22:25;;;;;;;5.53;2.17;;;;;;;28.42;32.02;101278.59;10389108;28;20045;-75
2022/09/02 08:27:26;;;;;;;10.50;2.38;;;;;;;29.58;29.64;101267.03;10412130;28;20760;-75
2022/09/02 08:32:28;;;;;;;6.68;2.38;;;;;;;29.36;29.74;101264.84;10386477;28;20042;-73
2022/09/02 08:37:30;;;;;;;9.75;3.50;;;;;;;30.14;28.95;101268.28;10393813;28;20060;-73
2022/09/02 08:42:33;;;;;;;5.28;3.70;;;;;;;30.00;28.31;101256.06;10395935;28;20037;-74
2022/09/02 08:47:34;;;;;;;4.50;2.20;;;;;;;29.34;29.07;101260.41;10367130;28;20038;-74
2022/09/02 08:52:49;;;;;;;4.40;1.90;;;;;;;30.31;29.38;101265.97;10383245;28;20033;-73
2022/09/02 08:57:50;;;;;;;4.15;2.15;;;;;;;30.65;27.95;101253.31;10424371;28;20049;-73
2022/09/02 09:03:23;;;;;;;4.53;2.33;;;;;;;31.41;27.64;101256.34;10437436;28;20131;-74
2022/09/02 09:08:30;;;;;;;10.27;2.15;;;;;;;31.24;26.95;101256.00;10387774;28;20289;-76
2022/09/02 09:13:58;;;;;;;6.30;2.78;;;;;;;31.80;26.51;101246.91;10438742;28;20068;-73
2022/09/02 09:19:00;;;;;;;5.25;2.22;;;;;;;31.33;26.86;101237.66;10418018;28;20041;-73
2022/09/02 09:24:05;;;;;;;8.90;2.42;;;;;;;31.71;26.09;101226.47;10409625;28;20087;-74
2022/09/02 09:29:06;;;;;;;4.63;2.05;;;;;;;32.11;24.95;101234.09;10386688;28;20040;-75
2022/09/02 09:34:08;;;;;;;5.82;1.95;;;;;;;31.40;25.03;101235.63;10390532;28;20059;-77
2022/09/02 09:39:30;;;;;;;8.15;1.73;;;;;;;31.06;26.50;101229.50;10371629;28;20456;-77
2022/09/02 09:44:35;;;;;;;9.93;3.25;;;;;;;32.48;24.53;101219.19;10420446;28;20155;-74
2022/09/02 09:49:36;;;;;;;8.25;2.70;;;;;;;31.01;25.89;101230.59;10429859;28;20045;-77
2022/09/02 09:54:37;;;;;;;;;;;;;;;31.53;26.87;101219.84;10411195;28;20383;-75
2022/09/02 09:59:40;;;;;;;4.97;1.83;;;;;;;31.24;26.33;101220.88;10384984;28;19917;-74
2022/09/02 10:04:40;;;;;;;5.88;1.90;;;;;;;31.43;26.04;101216.59;10416923;28;20049;-74
2022/09/02 10:09:41;;;;;;;7.93;2.07;;;;;;;31.63;25.47;101202.38;10415461;28;20120;-78
2022/09/02 10:14:46;;;;;;;8.10;1.63;;;;;;;32.72;24.02;101201.06;10424691;28;20267;-78
2022/09/02 10:19:55;;;;;;;5.47;1.98;;;;;;;31.51;25.11;101201.94;10422642;28;20452;-77
2022/09/02 10:25:19;;;;;;;9.27;2.58;;;;;;;31.47;24.59;101201.16;10459719;28;20037;-78
2022/09/02 10:30:21;;;;;;;3.97;2.13;;;;;;;31.51;23.54;101183.00;10442845;28;20381;-76
2022/09/02 10:35:44;;;;;;;2.97;1.50;;;;;;;31.77;24.11;101184.78;10459035;28;20044;-74
2022/09/02 10:41:18;;;;;;;3.92;1.90;;;;;;;30.71;24.87;101182.03;10443477;28;20040;-77
2022/09/02 10:46:21;;;;;;;3.30;1.45;;;;;;;31.57;23.64;101174.69;10416146;28;20486;-76
2022/09/02 10:51:50;;;;;;;3.47;1.95;;;;;;;31.30;22.52;101172.00;10410850;28;20064;-76
2022/09/02 10:57:28;;;;;;;2.28;1.70;;;;;;;31.59;22.51;101170.09;10440862;28;20033;-83
2022/09/02 11:02:41;;;;;;;2.10;1.45;;;;;;;32.32;21.02;101157.50;10405396;28;20072;-82
2022/09/02 11:07:46;;;;;;;2.72;1.52;;;;;;;31.80;20.26;101159.47;10408087;28;20042;-77
2022/09/02 11:13:02;;;;;;;4.18;1.83;;;;;;;31.40;22.05;101153.63;10447664;28;20041;-78
2022/09/02 11:18:14;;;;;;;1.15;1.00;;;;;;;31.88;21.22;101139.28;10487239;28;20041;-77
2022/09/02 11:23:35;;;;;;;2.80;1.48;;;;;;;31.47;21.20;101144.34;10437939;28;20045;-76
2022/09/02 11:28:43;;;;;;;3.72;1.38;;;;;;;31.51;22.06;101134.31;10437840;28;20198;-77
2022/09/02 11:33:57;;;;;;;3.00;1.48;;;;;;;31.89;20.63;101127.50;10465555;28;20041;-78
2022/09/02 11:39:04;;;;;;;4.40;1.70;;;;;;;31.24;21.90;101121.72;10441768;28;20086;-76
2022/09/02 11:44:33;;;;;;;3.20;1.35;;;;;;;32.19;20.89;101127.28;10455501;28;20036;-75
2022/09/02 11:50:10;;;;;;;4.95;2.38;;;;;;;31.84;21.20;101107.88;10440029;28;20026;-76
2022/09/02 11:55:19;;;;;;;4.75;1.50;;;;;;;31.58;21.78;101111.53;10442813;28;20044;-75
2022/09/02 12:00:35;;;;;;;3.55;1.95;;;;;;;31.87;22.29;101104.19;10447662;28;20040;-74
2022/09/02 12:05:43;;;;;;;6.63;3.85;;;;;;;31.34;22.21;101112.34;10436433;28;20439;-74
2022/09/02 12:10:48;;;;;;;4.45;1.55;;;;;;;31.85;20.74;101103.34;10457764;28;20473;-76
2022/09/02 12:16:03;;;;;;;7.03;1.65;;;;;;;32.53;21.03;101100.72;10455119;28;20041;-75
2022/09/02 12:21:05;;;;;;;3.63;1.40;;;;;;;30.68;22.11;101088.47;10429423;28;20033;-77
2022/09/02 12:26:06;;;;;;;6.47;1.92;;;;;;;31.59;21.37;101091.66;10424781;28;20062;-74
2022/09/02 12:31:09;;;;;;;2.60;1.47;;;;;;;32.70;20.94;101094.56;10435927;28;20094;-75
2022/09/02 12:36:35;;;;;;;3.78;1.10;;;;;;;32.10;19.90;101081.63;10439028;28;20025;-76
2022/09/02 12:41:38;;;;;;;2.35;1.40;;;;;;;31.97;19.87;101075.81;10451053;28;20041;-75
2022/09/02 12:46:46;;;;;;;2.25;1.20;;;;;;;32.95;18.97;101064.66;10459999;28;20132;-74
2022/09/02 12:51:52;;;;;;;3.72;1.33;;;;;;;30.20;22.10;101062.09;10453932;28;20040;-75
2022/09/02 12:56:52;;;;;;;6.80;2.10;;;;;;;31.55;20.65;101060.25;10456599;28;20127;-76
2022/09/02 13:02:05;;;;;;;8.47;2.17;;;;;;;32.57;20.31;101056.31;10448057;28;20399;-76
2022/09/02 13:07:23;;;;;;;7.85;1.95;;;;;;;32.63;19.71;101030.75;10415510;28;20137;-76
2022/09/02 13:12:57;;;;;;;4.50;1.30;;;;;;;31.92;20.55;101039.94;10448055;28;20043;-78
2022/09/02 13:18:07;;;;;;;4.80;1.23;;;;;;;32.02;19.57;101027.81;10422362;28;20079;-77
2022/09/02 13:23:32;;;;;;;4.10;1.38;;;;;;;32.45;18.71;101022.47;10412172;28;20544;-76
2022/09/02 13:28:59;;;;;;;4.95;1.88;;;;;;;31.50;21.57;101027.97;10406995;28;20096;-75
2022/09/02 13:34:03;;;;;;;3.05;2.10;;;;;;;32.02;20.70;101026.91;10427177;28;20044;-75
2022/09/02 13:39:18;;;;;;;7.68;1.90;;;;;;;32.50;19.71;101019.59;10402662;28;20434;-77
2022/09/02 13:44:22;;;;;;;5.03;1.65;;;;;;;32.35;20.00;101012.97;10438795;28;20068;-76
2022/09/02 13:49:25;;;;;;;6.50;1.50;;;;;;;32.40;20.43;101015.50;10446292;28;20082;-75
2022/09/02 13:54:33;;;;;;;4.60;1.60;;;;;;;31.60;20.52;101001.47;10437971;28;20392;-74
2022/09/02 13:59:38;;;;;;;3.35;2.17;;;;;;;32.32;20.06;100999.56;10464735;28;20488;-75
2022/09/02 14:04:39;;;;;;;2.50;1.40;;;;;;;32.89;19.11;100999.88;10469226;28;20036;-74
2022/09/02 14:09:39;;;;;;;4.90;1.23;;;;;;;32.72;18.80;100994.28;10448441;28;20120;-75
2022/09/02 14:14:40;;;;;;;2.63;1.23;;;;;;;32.23;20.30;100980.00;10415278;28;20137;-76
2022/09/02 14:19:40;;;;;;;6.00;2.25;;;;;;;32.44;19.12;100984.63;10402550;28;20285;-74
2022/09/02 14:24:41;;;;;;;4.97;1.60;;;;;;;32.44;20.19;100981.94;10419310;28;20120;-76
2022/09/02 14:29:45;;;;;;;2.27;1.50;;;;;;;32.86;19.96;100962.06;10418716;28;20533;-76
2022/09/02 14:34:46;;;;;;;1.90;1.33;;;;;;;32.87;20.08;100965.66;10413949;28;20114;-77
2022/09/02 14:39:59;;;;;;;4.15;1.40;;;;;;;33.81;18.82;100955.91;10414775;28;20620;-73
2022/09/02 14:45:01;;;;;;;3.88;1.55;;;;;;;32.39;19.25;100965.88;10405338;28;20054;-75
2022/09/02 14:50:02;;;;;;;1.83;1.15;;;;;;;30.24;21.61;100962.09;10456935;28;20526;-75
2022/09/02 14:55:05;;;;;;;2.85;1.58;;;;;;;30.18;22.22;100952.38;10465348;28;20040;-74
2022/09/02 15:00:10;;;;;;;4.35;1.38;;;;;;;30.29;22.51;100943.03;10453525;28;20090;-75
2022/09/02 15:05:14;;;;;;;4.10;1.65;;;;;;;31.16;22.16;100946.28;10415931;28;20708;-74
2022/09/02 15:10:14;;;;;;;4.72;1.52;;;;;;;30.56;21.99;100945.72;10449997;28;20045;-75
2022/09/02 15:15:15;;;;;;;3.67;1.80;;;;;;;30.24;22.47;100935.09;10443593;28;20033;-75
2022/09/02 15:20:16;;;;;;;6.18;1.45;;;;;;;30.06;23.19;100931.19;10453217;28;20033;-76
2022/09/02 15:25:17;;;;;;;2.67;1.47;;;;;;;30.05;22.74;100929.44;10440379;28;20108;-74
2022/09/02 15:30:17;;;;;;;6.80;2.33;;;;;;;29.92;22.52;100933.44;10467439;28;20063;-73
2022/09/02 15:35:18;;;;;;;6.93;1.77;;;;;;;29.16;23.56;100925.81;10449447;28;20037;-76
2022/09/02 15:40:18;;;;;;;4.50;1.80;;;;;;;28.82;24.45;100924.97;10455913;28;20053;-76
2022/09/02 15:45:19;;;;;;;3.60;1.40;;;;;;;28.56;24.58;100920.25;10434966;28;20128;-77
2022/09/02 15:50:19;;;;;;;4.33;1.97;;;;;;;27.90;24.88;100923.69;10419306;28;20099;-78
2022/09/02 15:55:20;;;;;;;4.90;1.93;;;;;;;27.21;25.84;100912.63;10388246;28;20041;-76
2022/09/02 16:00:20;;;;;;;4.20;1.60;;;;;;;26.69;26.73;100912.72;10397731;28;20136;-77
2022/09/02 16:05:22;;;;;;;8.83;2.00;;;;;;;25.96;27.96;100913.94;10398780;28;20590;-74
2022/09/02 16:10:23;;;;;;;3.80;1.65;;;;;;;25.50;29.74;100903.00;10397145;28;20034;-76
2022/09/02 16:15:24;;;;;;;17.07;3.37;;;;;;;25.34;29.47;100899.63;10400468;28;20046;-74
2022/09/02 16:20:24;;;;;;;3.60;2.10;;;;;;;25.05;29.76;100903.53;10413335;28;20036;-76
2022/09/02 16:25:25;;;;;;;3.73;1.70;;;;;;;24.84;30.64;100887.75;10408895;28;20485;-73
2022/09/02 16:30:26;;;;;;;4.53;2.50;;;;;;;24.65;30.39;100893.25;10446511;28;20516;-73
2022/09/02 16:35:26;;;;;;;5.88;2.08;;;;;;;24.55;30.77;100897.81;10446675;28;20094;-73
2022/09/02 16:40:27;;;;;;;5.23;1.60;;;;;;;24.32;31.91;100888.22;10448311;28;20032;-75
2022/09/02 16:45:27;;;;;;;3.90;1.37;;;;;;;24.25;31.28;100880.28;10444538;28;20049;-74
2022/09/02 16:50:28;;;;;;;4.07;1.77;;;;;;;24.07;31.60;100871.50;10426659;28;20486;-74
2022/09/02 16:55:30;;;;;;;2.77;1.93;;;;;;;23.99;32.28;100876.00;10402740;28;20116;-75
2022/09/02 17:00:32;;;;;;;6.43;1.67;;;;;;;23.87;32.36;100885.88;10404657;28;20030;-76
2022/09/02 17:05:32;;;;;;;5.00;1.90;;;;;;;23.76;33.11;100882.41;10432726;28;20131;-76
2022/09/02 17:10:33;;;;;;;4.77;2.23;;;;;;;23.59;33.23;100880.72;10422123;28;20049;-76
2022/09/02 17:15:34;;;;;;;6.20;2.10;;;;;;;23.36;32.97;100879.97;10391979;28;20041;-76
2022/09/02 17:20:34;;;;;;;6.40;3.93;;;;;;;23.17;33.27;100872.00;10392397;28;20055;-76
2022/09/02 17:25:35;;;;;;;5.47;2.10;;;;;;;22.98;34.33;100876.53;10476493;28;20492;-75
2022/09/02 17:30:35;;;;;;;4.95;1.73;;;;;;;22.59;35.12;100874.84;10426489;28;20094;-76
2022/09/02 17:35:36;;;;;;;3.43;2.13;;;;;;;22.46;35.65;100869.56;10445096;28;20127;-75
2022/09/02 17:46:05;;;;;;;5.25;1.40;;;;;;;22.11;35.43;100877.56;10448356;28;20497;-77
2022/09/02 17:51:06;;;;;;;2.88;1.58;;;;;;;21.80;37.66;100877.53;10460875;28;20072;-76
2022/09/02 17:56:54;;;;;;;5.95;1.70;;;;;;;21.34;38.57;100880.06;10442731;28;20540;-77
2022/09/02 18:02:15;;;;;;;3.92;1.88;;;;;;;21.05;38.66;100871.06;10428202;28;20047;-75
2022/09/02 18:07:24;;;;;;;6.25;3.33;;;;;;;20.86;38.98;100875.44;10439625;28;20051;-76
2022/09/02 18:12:25;;;;;;;7.00;1.65;;;;;;;20.60;40.17;100873.47;10393299;28;20448;-76
2022/09/02 18:17:56;;;;;;;23.47;8.90;;;;;;;20.37;40.44;100873.31;10402946;28;20567;-76
2022/09/02 18:23:28;;;;;;;5.22;1.65;;;;;;;20.08;40.95;100880.19;10433645;28;20259;-77
2022/09/02 18:28:47;;;;;;;2.40;1.50;;;;;;;19.68;42.32;100882.41;10470699;28;20091;-77
2022/09/02 18:34:00;;;;;;;6.22;2.20;;;;;;;19.50;42.66;100881.34;10468097;28;20531;-77
2022/09/02 18:39:23;;;;;;;27.52;21.55;;;;;;;19.26;44.10;100883.72;10440924;28;20053;-77
2022/09/02 18:44:34;;;;;;;3.60;2.85;;;;;;;18.91;43.98;100896.50;10400096;28;21031;-76
2022/09/02 18:49:36;;;;;;;5.60;2.15;;;;;;;18.63;45.53;100898.78;10395799;28;20371;-77
2022/09/02 18:54:46;;;;;;;4.03;2.00;;;;;;;18.27;45.72;100905.28;10375150;28;20115;-77
2022/09/02 18:59:58;;;;;;;32.67;26.65;;;;;;;17.94;47.58;100909.09;10441766;28;20036;-76
2022/09/02 19:04:59;;;;;;;15.30;12.15;;;;;;;17.75;48.12;100910.50;10413530;28;20064;-77
2022/09/02 19:10:01;;;;;;;6.60;3.50;;;;;;;17.61;49.45;100912.91;10431264;28;20417;-76
2022/09/02 19:15:05;;;;;;;2.93;1.80;;;;;;;17.49;49.96;100913.53;10435248;28;20057;-77
2022/09/02 19:20:06;;;;;;;3.83;2.85;;;;;;;17.16;50.25;100915.53;10438317;28;20454;-77
2022/09/02 19:25:09;;;;;;;2.30;1.67;;;;;;;16.97;51.32;100923.91;10452248;28;20045;-77
2022/09/02 19:30:12;;;;;;;3.05;1.70;;;;;;;16.78;51.56;100918.19;10403753;28;20053;-78
2022/09/02 19:35:15;;;;;;;17.42;12.20;;;;;;;16.67;52.24;100931.13;10477463;28;20041;-77
2022/09/02 19:40:25;;;;;;;2.53;1.50;;;;;;;16.59;51.79;100923.03;10416136;28;20781;-77
2022/09/02 19:45:28;;;;;;;11.93;6.68;;;;;;;16.68;53.58;100924.09;10399675;28;20117;-78
2022/09/02 19:50:28;;;;;;;4.25;3.30;;;;;;;16.44;53.85;100920.03;10399455;28;20064;-77
2022/09/02 19:55:28;;;;;;;11.25;5.40;;;;;;;16.23;53.72;100929.19;10399299;28;20447;-79
2022/09/02 20:00:31;;;;;;;5.13;2.22;;;;;;;16.10;53.96;100920.06;10400858;28;20133;-80
2022/09/02 20:05:32;;;;;;;5.40;1.85;;;;;;;16.02;53.46;100921.59;10415424;28;20429;-77
2022/09/02 20:10:33;;;;;;;4.70;2.22;;;;;;;15.83;54.71;100920.19;10426563;28;20068;-78
2022/09/02 20:15:37;;;;;;;3.83;1.90;;;;;;;15.68;55.07;100924.22;10406605;28;20447;-77
2022/09/02 20:20:41;;;;;;;4.07;2.08;;;;;;;15.52;55.24;100922.00;10384987;28;20493;-78
2022/09/02 20:25:48;;;;;;;4.07;2.10;;;;;;;15.47;55.55;100926.25;10370994;28;20038;-78
2022/09/02 20:30:52;;;;;;;4.60;2.15;;;;;;;15.42;56.36;100907.63;10399656;28;20498;-78
2022/09/02 20:36:19;;;;;;;3.05;1.75;;;;;;;15.32;56.02;100924.03;10398890;28;20034;-79
2022/09/02 20:41:32;;;;;;;3.63;1.85;;;;;;;15.19;57.27;100914.91;10447753;28;20116;-78
2022/09/02 20:46:54;;;;;;;4.65;2.45;;;;;;;15.08;57.35;100909.28;10428696;28;20052;-78
2022/09/02 20:52:05;;;;;;;3.90;2.00;;;;;;;15.09;57.32;100909.34;10395778;28;20053;-79
2022/09/02 20:57:14;;;;;;;5.43;1.70;;;;;;;15.02;57.10;100906.47;10416552;28;20112;-78
2022/09/02 21:02:15;;;;;;;4.07;1.90;;;;;;;14.88;58.13;100913.97;10424423;28;20512;-78
2022/09/02 21:07:25;;;;;;;3.13;2.00;;;;;;;14.74;58.90;100909.16;10409732;28;20053;-78
2022/09/02 21:13:04;;;;;;;4.63;1.50;;;;;;;14.68;59.23;100903.69;10422670;28;20228;-78
2022/09/02 21:18:10;;;;;;;4.60;1.85;;;;;;;14.55;59.85;100910.28;10439707;28;20417;-78
2022/09/02 21:23:27;;;;;;;6.10;2.05;;;;;;;14.43;60.43;100910.78;10446324;28;20048;-78
2022/09/02 21:28:41;;;;;;;3.55;2.20;;;;;;;14.33;61.62;100914.84;10429664;28;20382;-79
2022/09/02 21:33:42;;;;;;;4.50;1.80;;;;;;;14.26;61.58;100907.59;10414657;28;20038;-78
2022/09/02 21:38:45;;;;;;;4.90;2.30;;;;;;;14.16;62.27;100910.75;10439343;28;20057;-78
2022/09/02 21:43:55;;;;;;;5.22;2.25;;;;;;;14.06;63.72;100907.81;10385674;28;20037;-78
2022/09/02 21:49:05;;;;;;;3.95;1.77;;;;;;;13.96;63.66;100903.09;10405814;28;20046;-78
2022/09/02 21:54:36;;;;;;;4.95;1.80;;;;;;;13.91;62.08;100902.03;10438085;28;20039;-78
2022/09/02 22:00:02;;;;;;;3.83;1.60;;;;;;;13.89;61.94;100907.25;10454078;28;20519;-77
2022/09/02 22:05:18;;;;;;;3.78;1.95;;;;;;;13.91;62.16;100905.56;10444208;28;20447;-77
2022/09/02 22:10:23;;;;;;;6.03;1.92;;;;;;;13.80;62.40;100902.53;10444472;28;20048;-78
2022/09/02 22:15:58;;;;;;;4.55;2.40;;;;;;;13.73;63.50;100904.94;10441523;28;20043;-79
2022/09/02 22:21:04;;;;;;;2.60;2.10;;;;;;;13.67;62.68;100902.97;10417209;28;20123;-79
2022/09/02 22:26:16;;;;;;;6.38;2.67;;;;;;;13.62;62.71;100902.81;10449652;28;20067;-77
2022/09/02 22:31:17;;;;;;;;;;;;;;;13.61;63.19;100890.50;10419667;28;20424;-79
2022/09/02 22:36:36;;;;;;;3.60;2.53;;;;;;;13.53;63.48;100898.94;10456928;28;19925;-78
2022/09/02 22:41:50;;;;;;;4.28;2.72;;;;;;;13.46;63.76;100896.09;10449590;28;20041;-78
2022/09/02 22:57:50;;;;;;;3.53;2.05;;;;;;;13.25;64.74;100883.03;10458923;28;20159;-77
2022/09/02 23:03:09;;;;;;;3.28;1.77;;;;;;;13.16;64.76;100880.94;10413475;28;20033;-78
2022/09/02 23:08:19;;;;;;;3.85;2.45;;;;;;;13.12;64.92;100872.91;10441934;28;20056;-77
2022/09/02 23:13:36;;;;;;;5.28;2.17;;;;;;;13.17;64.54;100879.22;10401550;28;20077;-78
2022/09/02 23:18:40;;;;;;;5.35;2.20;;;;;;;13.17;66.35;100876.59;10438149;28;20094;-77
2022/09/02 23:23:52;;;;;;;4.32;2.72;;;;;;;13.09;66.27;100878.03;10442124;28;20128;-77
2022/09/02 23:29:24;;;;;;;5.00;2.97;;;;;;;12.86;66.88;100873.69;10433092;28;20519;-78
2022/09/02 23:34:42;;;;;;;3.50;2.38;;;;;;;12.73;67.80;100881.94;10424530;28;20049;-78
2022/09/02 23:40:12;;;;;;;6.85;2.35;;;;;;;12.64;67.02;100874.59;10440268;28;20103;-78
2022/09/02 23:45:40;;;;;;;6.00;2.00;;;;;;;12.66;68.74;100866.78;10356655;28;20108;-78